createdAt,value
2018-06-11T00:06:44.169Z,19.5
2018-06-11T00:16:43.097Z,19.5
2018-06-11T00:26:42.252Z,19.4
2018-06-11T00:36:41.715Z,19.4
2018-06-11T00:46:41.061Z,19.4
2018-06-11T00:56:39.947Z,19.4
2018-06-11T01:06:38.813Z,19.4
2018-06-11T01:16:38.122Z,19.3
2018-06-11T01:26:37.347Z,19.3
2018-06-11T01:36:36.594Z,19.2
2018-06-11T01:46:37.061Z,19.2
2018-06-11T01:56:35.426Z,19
2018-06-11T02:06:34.732Z,18.8
2018-06-11T02:16:34.358Z,18.8
2018-06-11T02:26:32.738Z,18.8
2018-06-11T02:36:31.944Z,18.8
2018-06-11T02:46:31.140Z,18.6
2018-06-11T02:56:30.942Z,18.5
2018-06-11T03:06:30.380Z,18.6
2018-06-11T03:16:29.486Z,18.6
2018-06-11T03:26:28.252Z,18.8
2018-06-11T03:36:27.785Z,19.1
2018-06-11T03:46:26.513Z,19.6
2018-06-11T03:56:26.799Z,19.9
2018-06-11T04:06:25.569Z,20.4
2018-06-11T04:16:24.395Z,20.9
2018-06-11T04:26:23.883Z,21.4
2018-06-11T04:36:23.254Z,21.9
2018-06-11T04:46:22.643Z,22.5
2018-06-11T04:56:21.479Z,23.1
2018-06-11T05:06:20.789Z,23.8
2018-06-11T05:16:20.520Z,24.4
2018-06-11T05:26:18.834Z,24.9
2018-06-11T05:36:18.441Z,25.4
2018-06-11T05:46:17.519Z,25.6
2018-06-11T05:56:17.160Z,25.8
2018-06-11T06:06:16.076Z,26.2
2018-06-11T06:16:15.020Z,26.6
2018-06-11T06:26:14.853Z,26.9
2018-06-11T06:36:13.542Z,27.4
2018-06-11T06:46:12.975Z,28
2018-06-11T06:56:11.956Z,28.6
2018-06-11T07:06:11.140Z,29.3
2018-06-11T07:16:10.712Z,29.6
2018-06-11T07:26:09.885Z,29.9
2018-06-11T07:36:08.886Z,30.6
2018-06-11T07:46:08.141Z,30.7
2018-06-11T07:56:07.370Z,30.9
2018-06-11T08:06:06.634Z,31.1
2018-06-11T08:16:05.745Z,31.5
2018-06-11T08:26:05.724Z,31.6
2018-06-11T08:36:04.837Z,31.3
2018-06-11T08:46:04.362Z,31.3
2018-06-11T08:56:03.335Z,31.3
2018-06-11T09:06:02.500Z,31
2018-06-11T09:16:01.761Z,30.9
2018-06-11T09:26:00.836Z,30.8
2018-06-11T09:36:00.189Z,31
2018-06-11T09:45:59.178Z,30.8
2018-06-11T09:55:58.108Z,30.8
2018-06-11T10:05:57.724Z,30.6
2018-06-11T10:15:56.578Z,30.6
2018-06-11T10:25:56.149Z,30.6
2018-06-11T10:35:56.002Z,30.4
2018-06-11T10:45:54.218Z,30.1
2018-06-11T10:55:53.472Z,29.8
2018-06-11T11:05:52.983Z,29.5
2018-06-11T11:15:52.099Z,29.4
2018-06-11T11:25:52.368Z,29.2
2018-06-11T11:35:50.511Z,29
2018-06-11T11:45:49.963Z,28.9
2018-06-11T11:55:49.304Z,29.1
2018-06-11T12:05:48.165Z,28.9
2018-06-11T12:15:47.371Z,28.9
2018-06-11T12:25:46.742Z,28.9
2018-06-11T12:35:46.065Z,28.8
2018-06-11T12:45:45.300Z,28.7
2018-06-11T12:55:44.303Z,28.6
2018-06-11T13:05:43.825Z,28.5
2018-06-11T13:15:43.136Z,28.4
2018-06-11T13:25:41.991Z,28.3
2018-06-11T13:35:41.545Z,28.1
2018-06-11T13:45:40.717Z,28.1
2018-06-11T13:55:40.868Z,28
2018-06-11T14:05:39.617Z,27.9
2018-06-11T14:15:38.108Z,27.8
2018-06-11T14:25:38.023Z,27.6
2018-06-11T14:35:36.904Z,27.4
2018-06-11T14:45:36.676Z,27.3
2018-06-11T14:55:35.642Z,27.3
2018-06-11T15:05:34.858Z,27.3
2018-06-11T15:15:33.826Z,27.2
2018-06-11T15:25:33.081Z,27.2
2018-06-11T15:35:31.993Z,27.2
2018-06-11T15:45:31.576Z,27.2
2018-06-11T15:55:30.749Z,27.1
2018-06-11T16:05:29.670Z,27
2018-06-11T16:15:29.527Z,26.9
2018-06-11T16:25:28.707Z,26.8
2018-06-11T16:35:27.401Z,26.5
2018-06-11T16:45:26.892Z,26.3
2018-06-11T16:55:26.180Z,26.1
2018-06-11T17:05:25.832Z,25.9
2018-06-11T17:15:24.285Z,25.7
2018-06-11T17:25:24.130Z,25.6
2018-06-11T17:35:23.149Z,25.4
2018-06-11T17:45:22.631Z,25.2
2018-06-11T17:55:21.254Z,25
2018-06-11T18:05:21.498Z,24.9
2018-06-11T18:15:19.671Z,24.9
2018-06-11T18:25:19.209Z,24.8
2018-06-11T18:35:18.231Z,24.7
2018-06-11T18:45:17.826Z,24.6
2018-06-11T18:55:17.480Z,24.5
2018-06-11T19:05:16.558Z,24.4
2018-06-11T19:15:15.632Z,24.2
2018-06-11T19:25:14.460Z,24.1
2018-06-11T19:35:13.955Z,23.8
2018-06-11T19:45:12.765Z,23.6
2018-06-11T19:55:12.010Z,23.4
2018-06-11T20:05:11.400Z,23.1
2018-06-11T20:15:11.169Z,22.9
2018-06-11T20:25:10.621Z,22.8
2018-06-11T20:35:09.293Z,22.5
2018-06-11T20:45:08.944Z,22.4
2018-06-11T20:55:07.995Z,22.2
2018-06-11T21:05:06.746Z,22.1
2018-06-11T21:15:06.244Z,22
2018-06-11T21:25:05.387Z,21.9
2018-06-11T21:35:04.650Z,21.9
2018-06-11T21:45:03.915Z,21.8
2018-06-11T21:55:02.953Z,21.6
2018-06-11T22:05:02.112Z,21.5
2018-06-11T22:15:02.080Z,21.4
2018-06-11T22:25:01.523Z,21.4
2018-06-11T22:34:59.847Z,21.3
2018-06-11T22:44:59.414Z,21.2
2018-06-11T22:54:58.786Z,21.1
2018-06-11T23:04:57.923Z,20.9
2018-06-11T23:14:57.168Z,20.8
2018-06-11T23:24:57.060Z,20.8
2018-06-11T23:34:55.350Z,20.7
2018-06-11T23:44:54.761Z,20.6
2018-06-11T23:54:53.907Z,20.6
